sensor_id;sensor_type;location;lat;lon;timestamp;P1;durP1;ratioP1;P2;durP2;ratioP2
37715;SDS011;23562;50.540;12.504;2023-06-10T00:01:20;10.48;;;8.88;;
37715;SDS011;23562;50.540;12.504;2023-06-10T00:03:47;13.75;;;9.10;;
37715;SDS011;23562;50.540;12.504;2023-06-10T00:06:12;12.65;;;8.50;;
37715;SDS011;23562;50.540;12.504;2023-06-10T00:08:38;12.70;;;8.93;;
37715;SDS011;23562;50.540;12.504;2023-06-10T00:11:04;11.80;;;8.80;;
37715;SDS011;23562;50.540;12.504;2023-06-10T00:13:29;12.80;;;9.25;;
37715;SDS011;23562;50.540;12.504;2023-06-10T00:15:55;10.87;;;8.30;;
37715;SDS011;23562;50.540;12.504;2023-06-10T00:18:20;11.37;;;8.77;;
37715;SDS011;23562;50.540;12.504;2023-06-10T00:20:47;11.57;;;8.75;;
37715;SDS011;23562;50.540;12.504;2023-06-10T00:23:13;10.55;;;9.10;;
37715;SDS011;23562;50.540;12.504;2023-06-10T00:25:39;12.83;;;8.47;;
37715;SDS011;23562;50.540;12.504;2023-06-10T00:28:04;11.05;;;8.63;;
37715;SDS011;23562;50.540;12.504;2023-06-10T00:30:29;10.88;;;8.70;;
37715;SDS011;23562;50.540;12.504;2023-06-10T00:32:54;10.27;;;8.70;;
37715;SDS011;23562;50.540;12.504;2023-06-10T00:35:19;10.05;;;8.77;;
37715;SDS011;23562;50.540;12.504;2023-06-10T00:37:44;9.95;;;8.60;;
37715;SDS011;23562;50.540;12.504;2023-06-10T00:40:10;10.07;;;8.93;;
37715;SDS011;23562;50.540;12.504;2023-06-10T00:42:35;12.73;;;8.77;;
37715;SDS011;23562;50.540;12.504;2023-06-10T00:45:01;11.87;;;9.37;;
37715;SDS011;23562;50.540;12.504;2023-06-10T00:47:26;10.87;;;9.67;;
37715;SDS011;23562;50.540;12.504;2023-06-10T00:49:51;11.57;;;9.75;;
37715;SDS011;23562;50.540;12.504;2023-06-10T00:52:17;12.43;;;9.27;;
37715;SDS011;23562;50.540;12.504;2023-06-10T00:54:43;11.93;;;9.93;;
37715;SDS011;23562;50.540;12.504;2023-06-10T00:57:09;11.45;;;9.55;;
37715;SDS011;23562;50.540;12.504;2023-06-10T00:59:34;12.32;;;9.77;;
37715;SDS011;23562;50.540;12.504;2023-06-10T01:01:59;11.37;;;9.50;;
37715;SDS011;23562;50.540;12.504;2023-06-10T01:04:25;13.38;;;9.82;;
37715;SDS011;23562;50.540;12.504;2023-06-10T01:07:05;13.17;;;10.10;;
37715;SDS011;23562;50.540;12.504;2023-06-10T01:12:10;12.75;;;10.20;;
37715;SDS011;23562;50.540;12.504;2023-06-10T01:14:36;14.20;;;10.68;;
37715;SDS011;23562;50.540;12.504;2023-06-10T01:17:01;12.23;;;9.88;;
37715;SDS011;23562;50.540;12.504;2023-06-10T01:19:28;14.82;;;10.98;;
37715;SDS011;23562;50.540;12.504;2023-06-10T01:21:55;14.75;;;10.30;;
37715;SDS011;23562;50.540;12.504;2023-06-10T01:24:20;11.67;;;10.03;;
37715;SDS011;23562;50.540;12.504;2023-06-10T01:26:47;13.30;;;10.13;;
37715;SDS011;23562;50.540;12.504;2023-06-10T01:29:25;13.98;;;10.27;;
37715;SDS011;23562;50.540;12.504;2023-06-10T01:34:18;13.00;;;9.90;;
37715;SDS011;23562;50.540;12.504;2023-06-10T01:36:48;10.95;;;9.80;;
37715;SDS011;23562;50.540;12.504;2023-06-10T01:39:14;19.73;;;10.20;;
37715;SDS011;23562;50.540;12.504;2023-06-10T01:41:40;14.40;;;10.18;;
37715;SDS011;23562;50.540;12.504;2023-06-10T01:44:05;12.95;;;10.13;;
37715;SDS011;23562;50.540;12.504;2023-06-10T01:46:30;15.02;;;9.63;;
37715;SDS011;23562;50.540;12.504;2023-06-10T01:48:55;11.10;;;9.93;;
37715;SDS011;23562;50.540;12.504;2023-06-10T01:51:21;9.75;;;8.73;;
37715;SDS011;23562;50.540;12.504;2023-06-10T01:53:46;12.30;;;9.75;;
37715;SDS011;23562;50.540;12.504;2023-06-10T01:56:11;13.43;;;9.77;;
37715;SDS011;23562;50.540;12.504;2023-06-10T01:58:41;12.60;;;9.95;;
37715;SDS011;23562;50.540;12.504;2023-06-10T02:01:06;11.23;;;9.35;;
37715;SDS011;23562;50.540;12.504;2023-06-10T02:03:32;10.43;;;9.27;;
37715;SDS011;23562;50.540;12.504;2023-06-10T02:05:57;11.13;;;8.93;;
37715;SDS011;23562;50.540;12.504;2023-06-10T02:08:22;12.38;;;9.43;;
37715;SDS011;23562;50.540;12.504;2023-06-10T02:10:47;11.35;;;9.38;;
37715;SDS011;23562;50.540;12.504;2023-06-10T02:13:12;13.68;;;10.05;;
37715;SDS011;23562;50.540;12.504;2023-06-10T02:15:37;10.67;;;8.63;;
37715;SDS011;23562;50.540;12.504;2023-06-10T02:18:02;11.10;;;9.32;;
37715;SDS011;23562;50.540;12.504;2023-06-10T02:20:28;12.27;;;9.67;;
37715;SDS011;23562;50.540;12.504;2023-06-10T02:22:53;12.27;;;9.70;;
37715;SDS011;23562;50.540;12.504;2023-06-10T02:25:18;11.43;;;10.07;;
37715;SDS011;23562;50.540;12.504;2023-06-10T02:27:43;13.57;;;9.63;;
37715;SDS011;23562;50.540;12.504;2023-06-10T02:30:08;12.30;;;10.03;;
37715;SDS011;23562;50.540;12.504;2023-06-10T02:32:35;12.90;;;10.10;;
37715;SDS011;23562;50.540;12.504;2023-06-10T02:35:00;14.50;;;10.07;;
37715;SDS011;23562;50.540;12.504;2023-06-10T02:37:25;16.85;;;10.43;;
37715;SDS011;23562;50.540;12.504;2023-06-10T02:39:50;12.70;;;9.70;;
37715;SDS011;23562;50.540;12.504;2023-06-10T02:42:15;12.43;;;10.32;;
37715;SDS011;23562;50.540;12.504;2023-06-10T02:44:40;11.15;;;9.80;;
37715;SDS011;23562;50.540;12.504;2023-06-10T02:47:06;12.27;;;10.48;;
37715;SDS011;23562;50.540;12.504;2023-06-10T02:49:31;13.03;;;10.50;;
37715;SDS011;23562;50.540;12.504;2023-06-10T02:51:56;13.10;;;11.27;;
37715;SDS011;23562;50.540;12.504;2023-06-10T02:54:22;16.95;;;11.20;;
37715;SDS011;23562;50.540;12.504;2023-06-10T02:56:47;12.57;;;10.85;;
37715;SDS011;23562;50.540;12.504;2023-06-10T02:59:14;15.15;;;11.45;;
37715;SDS011;23562;50.540;12.504;2023-06-10T03:01:39;13.05;;;10.75;;
37715;SDS011;23562;50.540;12.504;2023-06-10T03:04:04;19.83;;;11.10;;
37715;SDS011;23562;50.540;12.504;2023-06-10T03:06:30;16.08;;;11.38;;
37715;SDS011;23562;50.540;12.504;2023-06-10T03:08:55;17.83;;;11.52;;
37715;SDS011;23562;50.540;12.504;2023-06-10T03:11:20;13.35;;;11.88;;
37715;SDS011;23562;50.540;12.504;2023-06-10T03:13:45;14.37;;;11.27;;
37715;SDS011;23562;50.540;12.504;2023-06-10T03:16:10;14.20;;;11.13;;
37715;SDS011;23562;50.540;12.504;2023-06-10T03:18:37;13.55;;;11.38;;
37715;SDS011;23562;50.540;12.504;2023-06-10T03:21:02;13.67;;;11.63;;
37715;SDS011;23562;50.540;12.504;2023-06-10T03:23:27;17.65;;;12.60;;
37715;SDS011;23562;50.540;12.504;2023-06-10T03:25:54;16.33;;;13.68;;
37715;SDS011;23562;50.540;12.504;2023-06-10T03:28:19;18.08;;;13.88;;
37715;SDS011;23562;50.540;12.504;2023-06-10T03:30:45;19.77;;;15.05;;
37715;SDS011;23562;50.540;12.504;2023-06-10T03:33:11;19.02;;;16.48;;
37715;SDS011;23562;50.540;12.504;2023-06-10T03:35:36;18.50;;;15.07;;
37715;SDS011;23562;50.540;12.504;2023-06-10T03:38:01;17.00;;;14.25;;
37715;SDS011;23562;50.540;12.504;2023-06-10T03:40:26;18.13;;;14.00;;
37715;SDS011;23562;50.540;12.504;2023-06-10T03:42:51;17.80;;;13.98;;
37715;SDS011;23562;50.540;12.504;2023-06-10T03:45:16;17.65;;;14.73;;
37715;SDS011;23562;50.540;12.504;2023-06-10T03:47:42;17.88;;;14.75;;
37715;SDS011;23562;50.540;12.504;2023-06-10T03:50:08;16.25;;;14.02;;
37715;SDS011;23562;50.540;12.504;2023-06-10T03:52:34;16.08;;;13.13;;
37715;SDS011;23562;50.540;12.504;2023-06-10T03:54:59;15.77;;;13.57;;
37715;SDS011;23562;50.540;12.504;2023-06-10T03:57:24;16.67;;;13.77;;
37715;SDS011;23562;50.540;12.504;2023-06-10T03:59:49;18.43;;;14.03;;
37715;SDS011;23562;50.540;12.504;2023-06-10T04:02:15;16.55;;;13.85;;
37715;SDS011;23562;50.540;12.504;2023-06-10T04:04:41;15.30;;;12.98;;
37715;SDS011;23562;50.540;12.504;2023-06-10T04:07:06;19.73;;;15.00;;
37715;SDS011;23562;50.540;12.504;2023-06-10T04:09:33;18.13;;;14.15;;
37715;SDS011;23562;50.540;12.504;2023-06-10T04:11:58;20.20;;;14.00;;
37715;SDS011;23562;50.540;12.504;2023-06-10T04:14:23;18.38;;;13.50;;
37715;SDS011;23562;50.540;12.504;2023-06-10T04:16:49;16.63;;;14.23;;
37715;SDS011;23562;50.540;12.504;2023-06-10T04:19:15;16.50;;;13.18;;
37715;SDS011;23562;50.540;12.504;2023-06-10T04:21:40;17.57;;;13.93;;
37715;SDS011;23562;50.540;12.504;2023-06-10T04:24:05;18.92;;;14.05;;
37715;SDS011;23562;50.540;12.504;2023-06-10T04:26:31;17.87;;;13.47;;
37715;SDS011;23562;50.540;12.504;2023-06-10T04:28:56;14.48;;;12.85;;
37715;SDS011;23562;50.540;12.504;2023-06-10T04:31:21;16.15;;;13.77;;
37715;SDS011;23562;50.540;12.504;2023-06-10T04:33:46;17.00;;;13.15;;
37715;SDS011;23562;50.540;12.504;2023-06-10T04:36:11;17.63;;;14.13;;
37715;SDS011;23562;50.540;12.504;2023-06-10T04:38:36;15.50;;;13.77;;
37715;SDS011;23562;50.540;12.504;2023-06-10T04:41:02;15.00;;;12.85;;
37715;SDS011;23562;50.540;12.504;2023-06-10T04:43:27;16.83;;;13.98;;
37715;SDS011;23562;50.540;12.504;2023-06-10T04:45:53;15.70;;;14.02;;
37715;SDS011;23562;50.540;12.504;2023-06-10T04:48:18;14.85;;;13.30;;
37715;SDS011;23562;50.540;12.504;2023-06-10T04:50:43;17.25;;;13.30;;
37715;SDS011;23562;50.540;12.504;2023-06-10T04:53:08;14.55;;;12.88;;
37715;SDS011;23562;50.540;12.504;2023-06-10T04:55:34;17.30;;;13.32;;
37715;SDS011;23562;50.540;12.504;2023-06-10T04:57:59;18.30;;;12.97;;
37715;SDS011;23562;50.540;12.504;2023-06-10T05:00:24;15.70;;;13.00;;
37715;SDS011;23562;50.540;12.504;2023-06-10T05:02:50;16.55;;;13.60;;
37715;SDS011;23562;50.540;12.504;2023-06-10T05:05:16;15.50;;;13.40;;
37715;SDS011;23562;50.540;12.504;2023-06-10T05:07:42;14.55;;;12.93;;
37715;SDS011;23562;50.540;12.504;2023-06-10T05:10:07;15.98;;;12.35;;
37715;SDS011;23562;50.540;12.504;2023-06-10T05:12:32;14.20;;;11.52;;
37715;SDS011;23562;50.540;12.504;2023-06-10T05:14:57;14.70;;;12.73;;
37715;SDS011;23562;50.540;12.504;2023-06-10T05:17:22;15.43;;;11.93;;
37715;SDS011;23562;50.540;12.504;2023-06-10T05:19:48;16.80;;;12.07;;
37715;SDS011;23562;50.540;12.504;2023-06-10T05:22:13;14.57;;;12.03;;
37715;SDS011;23562;50.540;12.504;2023-06-10T05:24:39;13.77;;;11.55;;
37715;SDS011;23562;50.540;12.504;2023-06-10T05:27:05;14.57;;;12.23;;
37715;SDS011;23562;50.540;12.504;2023-06-10T05:29:31;17.13;;;12.73;;
37715;SDS011;23562;50.540;12.504;2023-06-10T05:31:56;18.33;;;14.00;;
37715;SDS011;23562;50.540;12.504;2023-06-10T05:34:22;15.07;;;12.75;;
37715;SDS011;23562;50.540;12.504;2023-06-10T05:36:47;13.65;;;11.90;;
37715;SDS011;23562;50.540;12.504;2023-06-10T05:39:13;18.10;;;11.80;;
37715;SDS011;23562;50.540;12.504;2023-06-10T05:41:38;18.00;;;12.63;;
37715;SDS011;23562;50.540;12.504;2023-06-10T05:44:03;15.75;;;13.10;;
37715;SDS011;23562;50.540;12.504;2023-06-10T05:46:29;17.00;;;12.95;;
37715;SDS011;23562;50.540;12.504;2023-06-10T05:48:54;14.45;;;12.05;;
37715;SDS011;23562;50.540;12.504;2023-06-10T05:51:19;15.95;;;13.00;;
37715;SDS011;23562;50.540;12.504;2023-06-10T05:53:44;13.50;;;12.10;;
37715;SDS011;23562;50.540;12.504;2023-06-10T05:56:11;16.92;;;12.73;;
37715;SDS011;23562;50.540;12.504;2023-06-10T05:58:36;14.50;;;12.47;;
37715;SDS011;23562;50.540;12.504;2023-06-10T06:01:01;13.80;;;11.90;;
37715;SDS011;23562;50.540;12.504;2023-06-10T06:03:26;12.93;;;11.52;;
37715;SDS011;23562;50.540;12.504;2023-06-10T06:05:53;12.80;;;10.75;;
37715;SDS011;23562;50.540;12.504;2023-06-10T06:08:18;16.88;;;12.32;;
37715;SDS011;23562;50.540;12.504;2023-06-10T06:10:46;13.70;;;12.25;;
37715;SDS011;23562;50.540;12.504;2023-06-10T06:13:12;13.27;;;11.68;;
37715;SDS011;23562;50.540;12.504;2023-06-10T06:15:38;16.30;;;12.47;;
37715;SDS011;23562;50.540;12.504;2023-06-10T06:18:03;12.97;;;11.60;;
37715;SDS011;23562;50.540;12.504;2023-06-10T06:20:28;13.65;;;11.15;;
37715;SDS011;23562;50.540;12.504;2023-06-10T06:22:54;14.82;;;11.60;;
37715;SDS011;23562;50.540;12.504;2023-06-10T06:25:19;15.70;;;10.93;;
37715;SDS011;23562;50.540;12.504;2023-06-10T06:27:44;13.13;;;10.75;;
37715;SDS011;23562;50.540;12.504;2023-06-10T06:30:10;13.23;;;11.82;;
37715;SDS011;23562;50.540;12.504;2023-06-10T06:32:35;13.32;;;11.60;;
37715;SDS011;23562;50.540;12.504;2023-06-10T06:35:00;11.63;;;10.43;;
37715;SDS011;23562;50.540;12.504;2023-06-10T06:37:25;12.32;;;11.05;;
37715;SDS011;23562;50.540;12.504;2023-06-10T06:39:51;13.20;;;11.30;;
37715;SDS011;23562;50.540;12.504;2023-06-10T06:42:16;14.07;;;11.38;;
37715;SDS011;23562;50.540;12.504;2023-06-10T06:44:42;13.27;;;11.57;;
37715;SDS011;23562;50.540;12.504;2023-06-10T06:47:07;13.48;;;11.32;;
37715;SDS011;23562;50.540;12.504;2023-06-10T06:49:32;16.57;;;12.13;;
37715;SDS011;23562;50.540;12.504;2023-06-10T06:51:57;16.47;;;12.10;;
37715;SDS011;23562;50.540;12.504;2023-06-10T06:54:22;15.70;;;13.10;;
37715;SDS011;23562;50.540;12.504;2023-06-10T06:56:47;16.25;;;13.20;;
37715;SDS011;23562;50.540;12.504;2023-06-10T06:59:13;15.43;;;13.55;;
37715;SDS011;23562;50.540;12.504;2023-06-10T07:01:39;17.80;;;13.85;;
37715;SDS011;23562;50.540;12.504;2023-06-10T07:04:04;15.53;;;13.17;;
37715;SDS011;23562;50.540;12.504;2023-06-10T07:06:29;15.98;;;13.20;;
37715;SDS011;23562;50.540;12.504;2023-06-10T07:08:54;13.73;;;12.23;;
37715;SDS011;23562;50.540;12.504;2023-06-10T07:11:19;17.33;;;14.60;;
37715;SDS011;23562;50.540;12.504;2023-06-10T07:13:45;17.92;;;15.00;;
37715;SDS011;23562;50.540;12.504;2023-06-10T07:16:10;19.52;;;15.05;;
37715;SDS011;23562;50.540;12.504;2023-06-10T07:18:35;20.67;;;16.23;;
37715;SDS011;23562;50.540;12.504;2023-06-10T07:21:00;14.52;;;13.02;;
37715;SDS011;23562;50.540;12.504;2023-06-10T07:23:25;17.80;;;14.63;;
37715;SDS011;23562;50.540;12.504;2023-06-10T07:25:50;17.17;;;14.00;;
37715;SDS011;23562;50.540;12.504;2023-06-10T07:28:16;15.52;;;13.70;;
37715;SDS011;23562;50.540;12.504;2023-06-10T07:30:41;16.67;;;13.20;;
37715;SDS011;23562;50.540;12.504;2023-06-10T07:33:06;16.85;;;12.77;;
37715;SDS011;23562;50.540;12.504;2023-06-10T07:35:32;19.25;;;13.70;;
37715;SDS011;23562;50.540;12.504;2023-06-10T07:37:57;15.32;;;13.73;;
37715;SDS011;23562;50.540;12.504;2023-06-10T07:40:23;18.75;;;14.13;;
37715;SDS011;23562;50.540;12.504;2023-06-10T07:42:48;14.85;;;12.77;;
37715;SDS011;23562;50.540;12.504;2023-06-10T07:45:13;22.35;;;15.13;;
37715;SDS011;23562;50.540;12.504;2023-06-10T07:47:39;15.65;;;13.75;;
37715;SDS011;23562;50.540;12.504;2023-06-10T08:30:00;16.00;;;12.32;;
37715;SDS011;23562;50.540;12.504;2023-06-10T08:32:25;19.83;;;13.97;;
37715;SDS011;23562;50.540;12.504;2023-06-10T08:34:50;17.73;;;12.73;;
37715;SDS011;23562;50.540;12.504;2023-06-10T08:37:16;12.85;;;11.38;;
37715;SDS011;23562;50.540;12.504;2023-06-10T08:39:41;16.73;;;12.67;;
37715;SDS011;23562;50.540;12.504;2023-06-10T08:42:11;14.40;;;12.40;;
37715;SDS011;23562;50.540;12.504;2023-06-10T08:44:41;15.43;;;12.02;;
37715;SDS011;23562;50.540;12.504;2023-06-10T08:47:13;14.27;;;12.60;;
37715;SDS011;23562;50.540;12.504;2023-06-10T08:49:41;17.48;;;13.35;;
37715;SDS011;23562;50.540;12.504;2023-06-10T08:52:07;17.10;;;13.07;;
37715;SDS011;23562;50.540;12.504;2023-06-10T08:54:34;16.58;;;14.23;;
37715;SDS011;23562;50.540;12.504;2023-06-10T08:57:03;14.90;;;12.88;;
37715;SDS011;23562;50.540;12.504;2023-06-10T08:59:30;17.23;;;12.63;;
37715;SDS011;23562;50.540;12.504;2023-06-10T09:01:56;15.75;;;11.77;;
37715;SDS011;23562;50.540;12.504;2023-06-10T09:04:21;18.17;;;13.20;;
37715;SDS011;23562;50.540;12.504;2023-06-10T09:06:46;21.87;;;13.57;;
37715;SDS011;23562;50.540;12.504;2023-06-10T09:09:14;14.25;;;12.10;;
37715;SDS011;23562;50.540;12.504;2023-06-10T09:11:40;14.00;;;12.23;;
37715;SDS011;23562;50.540;12.504;2023-06-10T09:14:06;15.45;;;12.93;;
37715;SDS011;23562;50.540;12.504;2023-06-10T09:16:32;13.60;;;12.07;;
37715;SDS011;23562;50.540;12.504;2023-06-10T09:18:57;14.35;;;11.90;;
37715;SDS011;23562;50.540;12.504;2023-06-10T09:21:23;13.07;;;11.63;;
37715;SDS011;23562;50.540;12.504;2023-06-10T09:23:49;13.75;;;10.93;;
37715;SDS011;23562;50.540;12.504;2023-06-10T09:26:14;12.68;;;11.38;;
37715;SDS011;23562;50.540;12.504;2023-06-10T09:28:41;16.73;;;10.90;;
37715;SDS011;23562;50.540;12.504;2023-06-10T09:31:06;14.27;;;10.43;;
37715;SDS011;23562;50.540;12.504;2023-06-10T09:33:38;14.45;;;10.20;;
37715;SDS011;23562;50.540;12.504;2023-06-10T09:36:04;19.15;;;11.07;;
37715;SDS011;23562;50.540;12.504;2023-06-10T09:38:35;11.07;;;9.88;;
37715;SDS011;23562;50.540;12.504;2023-06-10T09:41:00;14.45;;;9.13;;
37715;SDS011;23562;50.540;12.504;2023-06-10T09:43:38;10.73;;;9.63;;
37715;SDS011;23562;50.540;12.504;2023-06-10T09:46:04;14.15;;;10.52;;
37715;SDS011;23562;50.540;12.504;2023-06-10T09:48:29;15.67;;;11.67;;
37715;SDS011;23562;50.540;12.504;2023-06-10T09:50:54;12.73;;;10.67;;
37715;SDS011;23562;50.540;12.504;2023-06-10T09:53:20;16.10;;;11.53;;
37715;SDS011;23562;50.540;12.504;2023-06-10T09:55:45;15.73;;;11.68;;
37715;SDS011;23562;50.540;12.504;2023-06-10T09:58:10;13.13;;;11.25;;
37715;SDS011;23562;50.540;12.504;2023-06-10T10:00:36;13.95;;;11.57;;
37715;SDS011;23562;50.540;12.504;2023-06-10T10:03:01;12.05;;;10.77;;
37715;SDS011;23562;50.540;12.504;2023-06-10T10:05:26;12.90;;;10.17;;
37715;SDS011;23562;50.540;12.504;2023-06-10T10:07:51;12.10;;;10.45;;
37715;SDS011;23562;50.540;12.504;2023-06-10T10:10:18;12.25;;;10.88;;
37715;SDS011;23562;50.540;12.504;2023-06-10T10:12:43;13.02;;;9.95;;
37715;SDS011;23562;50.540;12.504;2023-06-10T10:15:10;13.25;;;10.43;;
37715;SDS011;23562;50.540;12.504;2023-06-10T10:18:21;13.82;;;10.38;;
37715;SDS011;23562;50.540;12.504;2023-06-10T10:20:26;11.77;;;10.57;;
37715;SDS011;23562;50.540;12.504;2023-06-10T10:25:22;15.18;;;11.05;;
37715;SDS011;23562;50.540;12.504;2023-06-10T10:27:48;15.32;;;11.48;;
37715;SDS011;23562;50.540;12.504;2023-06-10T10:30:15;12.00;;;9.65;;
37715;SDS011;23562;50.540;12.504;2023-06-10T10:32:58;13.73;;;9.68;;
37715;SDS011;23562;50.540;12.504;2023-06-10T10:35:24;8.60;;;7.75;;
37715;SDS011;23562;50.540;12.504;2023-06-10T10:37:53;7.45;;;6.70;;
37715;SDS011;23562;50.540;12.504;2023-06-10T10:40:19;9.95;;;7.13;;
37715;SDS011;23562;50.540;12.504;2023-06-10T10:42:45;9.55;;;7.47;;
37715;SDS011;23562;50.540;12.504;2023-06-10T10:45:10;9.18;;;7.68;;
37715;SDS011;23562;50.540;12.504;2023-06-10T10:47:36;10.10;;;8.18;;
37715;SDS011;23562;50.540;12.504;2023-06-10T10:50:03;10.00;;;8.30;;
37715;SDS011;23562;50.540;12.504;2023-06-10T10:52:50;10.48;;;8.20;;
37715;SDS011;23562;50.540;12.504;2023-06-10T10:55:16;10.15;;;9.07;;
37715;SDS011;23562;50.540;12.504;2023-06-10T10:57:41;13.20;;;9.40;;
37715;SDS011;23562;50.540;12.504;2023-06-10T11:00:06;9.63;;;8.63;;
37715;SDS011;23562;50.540;12.504;2023-06-10T11:02:44;11.43;;;9.15;;
37715;SDS011;23562;50.540;12.504;2023-06-10T11:05:11;11.27;;;9.80;;
37715;SDS011;23562;50.540;12.504;2023-06-10T11:07:36;11.95;;;9.25;;
37715;SDS011;23562;50.540;12.504;2023-06-10T11:10:04;16.77;;;9.35;;
37715;SDS011;23562;50.540;12.504;2023-06-10T11:17:36;9.88;;;8.88;;
37715;SDS011;23562;50.540;12.504;2023-06-10T11:20:01;13.10;;;9.50;;
37715;SDS011;23562;50.540;12.504;2023-06-10T11:22:26;12.75;;;9.50;;
37715;SDS011;23562;50.540;12.504;2023-06-10T11:24:51;13.07;;;8.77;;
37715;SDS011;23562;50.540;12.504;2023-06-10T11:27:20;11.73;;;9.10;;
37715;SDS011;23562;50.540;12.504;2023-06-10T11:29:55;13.07;;;9.35;;
37715;SDS011;23562;50.540;12.504;2023-06-10T11:32:21;11.10;;;8.88;;
37715;SDS011;23562;50.540;12.504;2023-06-10T11:34:51;11.23;;;9.43;;
37715;SDS011;23562;50.540;12.504;2023-06-10T11:37:17;13.00;;;9.45;;
37715;SDS011;23562;50.540;12.504;2023-06-10T11:39:42;12.07;;;9.53;;
37715;SDS011;23562;50.540;12.504;2023-06-10T11:42:08;17.95;;;9.40;;
37715;SDS011;23562;50.540;12.504;2023-06-10T11:44:33;11.35;;;8.27;;
37715;SDS011;23562;50.540;12.504;2023-06-10T11:47:02;9.85;;;8.77;;
37715;SDS011;23562;50.540;12.504;2023-06-10T11:49:27;10.93;;;9.00;;
37715;SDS011;23562;50.540;12.504;2023-06-10T11:51:52;11.67;;;9.60;;
37715;SDS011;23562;50.540;12.504;2023-06-10T11:54:18;10.05;;;8.80;;
37715;SDS011;23562;50.540;12.504;2023-06-10T11:56:43;11.50;;;8.73;;
37715;SDS011;23562;50.540;12.504;2023-06-10T11:59:08;9.32;;;8.32;;
37715;SDS011;23562;50.540;12.504;2023-06-10T12:01:34;11.47;;;8.87;;
37715;SDS011;23562;50.540;12.504;2023-06-10T12:04:06;9.98;;;8.13;;
37715;SDS011;23562;50.540;12.504;2023-06-10T12:09:03;17.77;;;8.68;;
37715;SDS011;23562;50.540;12.504;2023-06-10T12:11:28;11.35;;;7.45;;
37715;SDS011;23562;50.540;12.504;2023-06-10T12:13:53;9.37;;;7.00;;
37715;SDS011;23562;50.540;12.504;2023-06-10T12:16:19;12.63;;;7.50;;
37715;SDS011;23562;50.540;12.504;2023-06-10T12:18:44;10.18;;;7.07;;
37715;SDS011;23562;50.540;12.504;2023-06-10T12:21:17;12.77;;;7.22;;
37715;SDS011;23562;50.540;12.504;2023-06-10T12:26:40;9.88;;;6.60;;
37715;SDS011;23562;50.540;12.504;2023-06-10T12:29:18;7.38;;;6.53;;
37715;SDS011;23562;50.540;12.504;2023-06-10T12:32:01;8.52;;;6.47;;
37715;SDS011;23562;50.540;12.504;2023-06-10T12:34:37;8.05;;;6.55;;
37715;SDS011;23562;50.540;12.504;2023-06-10T12:37:03;10.68;;;6.82;;
37715;SDS011;23562;50.540;12.504;2023-06-10T12:39:29;9.57;;;6.50;;
37715;SDS011;23562;50.540;12.504;2023-06-10T12:41:54;8.27;;;7.13;;
37715;SDS011;23562;50.540;12.504;2023-06-10T12:44:28;9.20;;;6.60;;
37715;SDS011;23562;50.540;12.504;2023-06-10T12:46:56;12.77;;;8.00;;
37715;SDS011;23562;50.540;12.504;2023-06-10T12:49:21;9.68;;;6.25;;
37715;SDS011;23562;50.540;12.504;2023-06-10T12:51:46;6.75;;;6.05;;
37715;SDS011;23562;50.540;12.504;2023-06-10T12:54:12;7.90;;;6.03;;
37715;SDS011;23562;50.540;12.504;2023-06-10T12:56:37;9.23;;;6.22;;
37715;SDS011;23562;50.540;12.504;2023-06-10T12:59:02;8.80;;;6.10;;
37715;SDS011;23562;50.540;12.504;2023-06-10T13:01:28;8.23;;;5.82;;
37715;SDS011;23562;50.540;12.504;2023-06-10T13:03:53;6.57;;;5.67;;
37715;SDS011;23562;50.540;12.504;2023-06-10T13:06:18;8.30;;;5.80;;
37715;SDS011;23562;50.540;12.504;2023-06-10T13:08:43;7.50;;;5.40;;
37715;SDS011;23562;50.540;12.504;2023-06-10T13:11:08;6.05;;;5.45;;
37715;SDS011;23562;50.540;12.504;2023-06-10T13:13:36;13.35;;;5.50;;
37715;SDS011;23562;50.540;12.504;2023-06-10T13:16:02;8.68;;;5.45;;
37715;SDS011;23562;50.540;12.504;2023-06-10T13:18:27;7.57;;;5.73;;
37715;SDS011;23562;50.540;12.504;2023-06-10T13:20:52;8.23;;;5.73;;
37715;SDS011;23562;50.540;12.504;2023-06-10T13:23:17;9.57;;;5.38;;
37715;SDS011;23562;50.540;12.504;2023-06-10T13:25:42;8.27;;;5.33;;
37715;SDS011;23562;50.540;12.504;2023-06-10T13:28:09;5.85;;;5.20;;
37715;SDS011;23562;50.540;12.504;2023-06-10T13:30:34;7.75;;;5.10;;
37715;SDS011;23562;50.540;12.504;2023-06-10T13:32:59;6.40;;;4.75;;
37715;SDS011;23562;50.540;12.504;2023-06-10T13:35:25;7.53;;;5.43;;
37715;SDS011;23562;50.540;12.504;2023-06-10T13:37:50;7.47;;;5.03;;
37715;SDS011;23562;50.540;12.504;2023-06-10T13:40:15;7.38;;;5.15;;
37715;SDS011;23562;50.540;12.504;2023-06-10T13:42:41;5.97;;;5.10;;
37715;SDS011;23562;50.540;12.504;2023-06-10T13:45:06;8.52;;;5.22;;
37715;SDS011;23562;50.540;12.504;2023-06-10T13:47:31;6.88;;;5.47;;
37715;SDS011;23562;50.540;12.504;2023-06-10T13:49:57;7.10;;;5.28;;
37715;SDS011;23562;50.540;12.504;2023-06-10T13:52:22;9.65;;;5.13;;
37715;SDS011;23562;50.540;12.504;2023-06-10T13:54:47;5.57;;;4.97;;
37715;SDS011;23562;50.540;12.504;2023-06-10T13:57:12;7.30;;;5.03;;
37715;SDS011;23562;50.540;12.504;2023-06-10T13:59:37;5.60;;;5.03;;
37715;SDS011;23562;50.540;12.504;2023-06-10T14:02:02;6.13;;;5.47;;
37715;SDS011;23562;50.540;12.504;2023-06-10T14:04:28;6.53;;;5.65;;
37715;SDS011;23562;50.540;12.504;2023-06-10T14:06:53;7.35;;;5.72;;
37715;SDS011;23562;50.540;12.504;2023-06-10T14:09:19;8.55;;;5.30;;
37715;SDS011;23562;50.540;12.504;2023-06-10T14:11:44;6.47;;;5.45;;
37715;SDS011;23562;50.540;12.504;2023-06-10T14:14:09;6.40;;;5.60;;
37715;SDS011;23562;50.540;12.504;2023-06-10T14:16:35;5.65;;;5.15;;
37715;SDS011;23562;50.540;12.504;2023-06-10T14:19:00;9.53;;;5.67;;
37715;SDS011;23562;50.540;12.504;2023-06-10T14:21:25;6.15;;;5.13;;
37715;SDS011;23562;50.540;12.504;2023-06-10T14:23:50;6.53;;;5.23;;
37715;SDS011;23562;50.540;12.504;2023-06-10T14:26:18;6.95;;;4.85;;
37715;SDS011;23562;50.540;12.504;2023-06-10T14:28:43;9.70;;;5.72;;
37715;SDS011;23562;50.540;12.504;2023-06-10T14:31:08;6.22;;;5.22;;
37715;SDS011;23562;50.540;12.504;2023-06-10T14:33:33;6.27;;;5.00;;
37715;SDS011;23562;50.540;12.504;2023-06-10T14:35:58;5.68;;;4.97;;
37715;SDS011;23562;50.540;12.504;2023-06-10T14:38:24;7.68;;;5.45;;
37715;SDS011;23562;50.540;12.504;2023-06-10T14:40:49;6.47;;;5.10;;
37715;SDS011;23562;50.540;12.504;2023-06-10T14:43:14;9.27;;;5.73;;
37715;SDS011;23562;50.540;12.504;2023-06-10T14:45:40;5.82;;;5.25;;
37715;SDS011;23562;50.540;12.504;2023-06-10T14:48:05;6.32;;;5.10;;
37715;SDS011;23562;50.540;12.504;2023-06-10T14:50:31;6.70;;;5.35;;
37715;SDS011;23562;50.540;12.504;2023-06-10T14:52:57;8.70;;;5.90;;
37715;SDS011;23562;50.540;12.504;2023-06-10T14:55:22;7.05;;;5.70;;
37715;SDS011;23562;50.540;12.504;2023-06-10T14:57:53;11.20;;;5.90;;
37715;SDS011;23562;50.540;12.504;2023-06-10T15:00:20;10.65;;;5.30;;
37715;SDS011;23562;50.540;12.504;2023-06-10T15:02:48;6.40;;;5.80;;
37715;SDS011;23562;50.540;12.504;2023-06-10T15:05:13;7.50;;;5.28;;
37715;SDS011;23562;50.540;12.504;2023-06-10T15:07:40;7.03;;;5.60;;
37715;SDS011;23562;50.540;12.504;2023-06-10T15:10:05;5.97;;;5.10;;